Scroll down
FLIGHT INFORMATION
Southern Air

SOO2201

At Arrival Gate

SAEZ
 SBRF
DATE: 2020-09-06
GATE:  -
GATE DEPARTURE: 21:08
TAKEOFF: 21:17
DATE: 2020-09-07
GATE:  -
LANDING: 01:51
GATE ARRIVAL: 01:55
FLIGHT DATA
Speed: 
481 kts
Altitude: 
37,015 ft
Stage Length: 
2,063.8 nm
Block Time: 
4.8 hrs
Flight Time: 
4.6 hrs
Fuel Used: 
26,676 lb
Cleared Route: SAEZ DORVO PABOT LOMID ANRUP MLO OGRUN DEVOT ABELA OPROR NELOX ITBEB TIMVI UTMUD EGBIP UGREV DOKPU EKUBI EGDED ANDEB EVPIB DOKRO FEITO AKNUB VUDAV BITAK NISBO KOVGO MIA VUPIP SEGLI MOLSU UKENU DOGSU SASBU OPLOX SATBU DAGEL XUVUD SGR BIDEV NAXOV IRUMI ESLIB MEDIT RUBEN SBRF
TRACK DATA
50,000 ft 1,000 kts
AIRCRAFT INFO AND CUMULATIVE STATS
Aircraft Type: 
B738BCF
Registration: 
SELCAL: 
MSN/LN: 
32884 / 1181
Operator: 
Total Flights: 
7
Total Block Time: 
26 hrs
Total Flight Time: 
25.6 hrs
Total Fuel Time: 
122,027 lb
DATALINK LOG | Newest first | Current as of: 2020-11-29 02:15:44
LABEL SEQUENCE CONTENT Dn/Up
QD553001:55 8.7▼ Dn
QC512701:51▼ Dn
GR1551SBRF 01:48 MAAS YP/UM WCHR/S/C HI-VAL NO DIPL/VIP NO▼ Dn
2U5439SBRF 070000Z 15009KT 9999 SCT025 25/19 Q1014▲ Up
2S5330SBRF▼ Dn
UM200255CLEARED TO FL 370▲ Up
DM60245REQUEST FL 370 DUE TO A/C PERF▼ Dn
GR5538SBRF 01:51 MAAS YP/UM WCHR/S/C HI-VAL NO DIPL/VIP NO▼ Dn
5U1713SBRF 070204Z 14007KT 9999 FEW025 25/19 Q1013▲ Up
5S1703SBRF▼ Dn
QB180521:17▼ Dn
QA085621:08 35.5▼ Dn
A35745CLEARED TO SBRF VIA PTA6B DORVO UN857 RUBEN BUVA1A. SQUAWK .▲ Up
Q05442[LINK ACK]▲ Up
Q05442[LINK TEST]▼ Dn


AIRCRAFT HISTORY
FLIGHT DATE FLIGHT NO. ORIGIN DESTINATION CLEARED ROUTE BLOCK TIME FLIGHT TIME FUEL USED PILOT
2020-10-22SOO9S2201LEMD EGKK LEMD SIE EDIGO DGO BLV MAPAX NENEM PEXOD DESAB TEPRA NORMI MOKOR TERPO GODAN REN UPALO REVTU ODREP GOKTU VASUX EGKK2 hrs1.7 hrs9,208 lbRoberto Stopnicki
2020-10-19SOO2201LXGB LEMD LXGB PIMOS MGA BLN MORAL LEMD1.7 hrs1.4 hrs10,465 lbRoberto Stopnicki
2020-09-11SOO2201GOOY LXGB GOOY 2410N BULIS DIVUX TOPMA MAK TNG LXGB3.7 hrs3.6 hrs24,722 lbRoberto Stopnicki
2020-09-08SOO2201SBRF GOOY SBRF MOVLA AMBET VURBI MOXIP BUGAT REGIS ARUNU BUTAP KODOS TAROT INIRO BOMSA DS GATRO RW014.6 hrs4.4 hrs30,200 lbRoberto Stopnicki
2020-09-06SOO2201SAEZ SBRF SAEZ DORVO PABOT LOMID ANRUP MLO OGRUN DEVOT ABELA OPROR NELOX ITBEB TIMVI UTMUD EGBIP UGREV DOKPU EKUBI EGDED ANDEB EVPIB DOKRO FEITO AKNUB VUDAV BITAK NISBO KOVGO MIA VUPIP SEGLI MOLSU UKENU DOGSU SASBU OPLOX SATBU DAGEL XUVUD SGR BIDEV NAXOV IRUMI ESLIB MEDIT RUBEN SBRF4.8 hrs4.6 hrs26,676 lbRoberto Stopnicki
2020-09-02SOO2201SEQM SAEZ SEQM VURIS PAV VUKOK PUL URC ILMOX JUL ARSUN UBSAS USTOT NAXET JUJ ASODO VADUN GAVEX ESPER DADMI ERE ROMUR ISOPO SNT SAEZ5.4 hrs5.1 hrs32,535 lbRoberto Stopnicki
2020-08-09SOO2311KIAH SEQM KIAH TTAPS BOTLL FLYZA PPALE VUH KELPP KEHLI SUVUM LEVAT RORLA ITLOM IGTOB MUXOG AXEVU VIGTU VOBED CZM ITAKU SIGMA AMESI TEKUG SPP MORLI TBG MILAT TOKUT TCO ENSOL NEGAL QIT SEQM5.1 hrs4.8 hrs27,643 lbMichael Roth